Terminal Aerodrome Forecast
Issued by NWS

Home | Current Version | Previous Version | Text Only | Print | Product List | Glossary On
Versions: 1 2 3 4 5 6 7 8 9 10 11 12 13 14 15 16 17 18 19
955
FTUS43 KDLH 192320
TAFHIB
TAF
KHIB 192320Z 2000/2024 24008KT P6SM SCT060
     FM200700 20005KT P6SM VCSH SCT060 BKN150
     FM201100 20004KT P6SM VCSH BKN050 OVC100
     FM201400 26005KT P6SM SCT060 BKN100=

USA.gov is the U.S. government's official web portal to all federal, state and local government web resources and services.